Flight Track Log - Related Links

Times and Time Zones

All times are in EDT time to prevent confusion due to time zone crossing. See the CSJ405 flight status page for this flight to view local times or setup timezone preferences in your user account.

Time Position Orientation Groundspeed Altitude Reporting Facility
EDT Latitude Longitude Course Direction KTS MPH feet Rate Location/Type
Wed 10:24:04 PM 43.1333 -77.6331 58° Northeast 87 100 1,800  Level Cleveland Center
Wed 10:25:05 PM 43.1464 -77.6522 313° West 118 136 2,700 942 Climbing Cleveland Center
Wed 10:26:05 PM 43.1453 -77.6978 268° West 127 146 3,700 645 Climbing Cleveland Center
Wed 10:27:06 PM 43.1467 -77.7519 272° West 137 158 4,000 102 Climbing Cleveland Center
Wed 10:29:02 PM 43.1500 -77.8667 272° West 174 200 4,000  Level Buffalo TRACON
Wed 10:30:02 PM 43.1667 -77.9333 289° West 171 197 4,000  Level Buffalo TRACON
Wed 10:31:02 PM 43.1667 -78.0000 270° West 171 197 4,000 67 Level Buffalo TRACON
Wed 10:31:32 PM 43.1500 -78.0167 216° Southwest 170 196 4,100 67 Climbing Toronto Center
Wed 10:32:32 PM 43.1500 -78.0833 270° West 170 196 4,100  Level Toronto Center
Wed 10:33:32 PM 43.1333 -78.1500 251° West 170 196 4,100  Level Toronto Center
Wed 10:34:32 PM 43.1500 -78.2000 295° West 170 196 4,100  Level Toronto Center
Wed 10:35:32 PM 43.1500 -78.2667 270° West 180 207 4,100  Level Toronto Center
Wed 10:36:32 PM 43.1500 -78.3333 270° West 180 207 4,100  Level Toronto Center
Wed 10:37:32 PM 43.1500 -78.4000 270° West 180 207 4,100  Level Toronto Center
Wed 10:38:32 PM 43.1500 -78.4667 270° West 170 196 4,100  Level Toronto Center
Wed 10:39:32 PM 43.1667 -78.5333 289° West 180 207 4,100  Level Toronto Center
Wed 10:40:32 PM 43.1667 -78.6000 270° West 180 207 4,100  Level Toronto Center
Wed 10:41:32 PM 43.1667 -78.6667 270° West 180 207 4,100  Level Toronto Center
Wed 10:42:32 PM 43.1667 -78.7500 270° West 180 207 4,100  Level Toronto Center
Wed 10:43:32 PM 43.1667 -78.8167 270° West 180 207 4,100 -50 Level Toronto Center
Wed 10:44:32 PM 43.1667 -78.8833 270° West 180 207 4,000 -50 Descending Toronto Center
Wed 10:45:32 PM 43.1667 -78.9500 270° West 180 207 4,000  Level Toronto Center
Wed 10:46:32 PM 43.1667 -79.0167 270° West 180 207 4,000  Level Toronto Center
Wed 10:47:32 PM 43.1667 -79.0833 270° West 180 207 4,000  Level Toronto Center
Wed 10:48:32 PM 43.1667 -79.1333 270° West 160 184 4,000  Level Toronto Center
Wed 10:49:32 PM 43.1667 -79.2000 270° West 160 184 4,000  Level Toronto Center
Wed 10:50:32 PM 43.1667 -79.2667 270° West 160 184 4,000  Level Toronto Center
Wed 10:51:32 PM 43.1667 -79.3167 270° West 150 173 4,000  Level Toronto Center
Wed 10:52:32 PM 43.1667 -79.3833 270° West 140 161 4,000  Level Toronto Center
Wed 10:53:32 PM 43.1667 -79.4333 270° West 140 161 4,000  Level Toronto Center
Wed 10:54:32 PM 43.1833 -79.4667 304° West 150 173 4,000  Level Toronto Center
Wed 10:55:32 PM 43.1833 -79.5333 270° West 160 184 4,000  Level Toronto Center
Wed 10:56:32 PM 43.2000 -79.6167 285° West 160 184 4,000  Level Toronto Center
Wed 10:57:32 PM 43.2167 -79.6500 304° West 160 184 4,000  Level Toronto Center
Wed 10:58:32 PM 43.2167 -79.7167 270° West 160 184 4,000 50 Level Toronto Center
Wed 10:59:32 PM 43.2333 -79.7667 295° West 140 161 4,100  Climbing Toronto Center
Wed 11:01:04 PM 43.2500 -79.8667 283° West 131 151 4,000 -39 Descending Buffalo TRACON
Wed 11:02:04 PM 43.2667 -79.9167 295° West 132 152 4,000  Level Buffalo TRACON
Wed 11:03:04 PM 43.2667 -79.9667 270° West 138 159 4,000  Level Buffalo TRACON
Wed 11:04:04 PM 43.2667 -80.0167 270° West 133 153 4,000  Level Buffalo TRACON
Wed 11:05:04 PM 43.2500 -80.0667 245° Southwest 131 151 4,000  Level Buffalo TRACON
Wed 11:06:04 PM 43.2333 -80.1000 236° Southwest 132 152 4,000  Level Buffalo TRACON
Wed 11:07:04 PM 43.2000 -80.1167 200° South 132 152 4,000  Level Buffalo TRACON
Wed 11:08:04 PM 43.1667 -80.1500 216° Southwest 131 151 4,000  Level Buffalo TRACON
Wed 11:10:00 PM 43.1702 -80.0332 88° East  Level Estimated

Login

Don't have an account? Register now (free) for customized features, flight alerts, and more!